Time;durP1;ratioP1;P1;durP2;ratioP2;P2;SDS_P1;SDS_P2;PMS_P1;PMS_P2;Temp;Humidity;BMP_temperature;BMP_pressure;BME280_temperature;BME280_humidity;BME280_pressure;Samples;Min_cycle;Max_cycle;Signal;HPM_P1;HPM_P2
2022/01/30 00:00:52;;;;;;;5.82;1.58;;;;;;;;;;5049288;28;20032;-65
2022/01/30 00:03:18;;;;;;;4.78;1.58;;;;;;;;;;5048148;28;20071;-66
2022/01/30 00:05:44;;;;;;;4.35;1.88;;;;;;;;;;5049235;28;20025;-66
2022/01/30 00:08:10;;;;;;;7.63;1.83;;;;;;;;;;5046454;28;20025;-67
2022/01/30 00:10:40;;;;;;;6.85;1.85;;;;;;;;;;5042039;28;20104;-65
2022/01/30 00:13:11;;;;;;;5.63;1.40;;;;;;;;;;5046241;28;20518;-66
2022/01/30 00:15:52;;;;;;;5.15;1.70;;;;;;;;;;5046909;28;20033;-66
2022/01/30 00:23:31;;;;;;;5.78;1.80;;;;;;;;;;5041917;28;20116;-66
2022/01/30 00:25:58;;;;;;;6.65;1.58;;;;;;;;;;5043786;28;20037;-66
2022/01/30 00:28:26;;;;;;;5.60;1.45;;;;;;;;;;5045944;28;20071;-65
2022/01/30 00:30:53;;;;;;;5.80;1.95;;;;;;;;;;5046119;28;20087;-64
2022/01/30 00:33:19;;;;;;;7.80;1.50;;;;;;;;;;5043174;28;20043;-68
2022/01/30 00:35:45;;;;;;;8.77;2.60;;;;;;;;;;5044746;28;20029;-66
2022/01/30 00:38:15;;;;;;;7.65;1.75;;;;;;;;;;5044492;28;20458;-65
2022/01/30 00:40:41;;;;;;;8.38;1.58;;;;;;;;;;5043823;28;21413;-66
2022/01/30 00:43:08;;;;;;;8.23;2.42;;;;;;;;;;5044303;28;20087;-66
2022/01/30 00:45:34;;;;;;;5.65;1.50;;;;;;;;;;5044114;28;20033;-64
2022/01/30 00:48:00;;;;;;;10.35;1.65;;;;;;;;;;5048185;28;20039;-65
2022/01/30 00:50:26;;;;;;;7.03;2.45;;;;;;;;;;5045229;28;20427;-65
2022/01/30 00:52:55;;;;;;;6.60;1.60;;;;;;;;;;5047534;28;20021;-66
2022/01/30 00:55:22;;;;;;;7.97;1.52;;;;;;;;;;5049032;28;20112;-67
2022/01/30 00:57:48;;;;;;;6.75;1.80;;;;;;;;;;5037489;28;20536;-66
2022/01/30 01:00:15;;;;;;;10.85;2.45;;;;;;;;;;5047860;28;20027;-66
2022/01/30 01:02:41;;;;;;;7.90;2.60;;;;;;;;;;5046041;28;20103;-66
2022/01/30 01:05:08;;;;;;;6.78;1.60;;;;;;;;;;5049434;28;20035;-65
2022/01/30 01:07:35;;;;;;;6.63;1.80;;;;;;;;;;5049276;28;20110;-66
2022/01/30 01:10:25;;;;;;;6.85;1.55;;;;;;;;;;5048893;28;20025;-66
2022/01/30 01:21:01;;;;;;;6.38;1.80;;;;;;;;;;5049371;28;20051;-68
2022/01/30 01:25:54;;;;;;;6.03;2.10;;;;;;;;;;5049655;28;20500;-66
2022/01/30 01:28:20;;;;;;;5.90;1.83;;;;;;;;;;5051432;28;20107;-66
2022/01/30 01:30:47;;;;;;;9.07;1.75;;;;;;;;;;5048946;28;20527;-65
2022/01/30 01:33:14;;;;;;;8.27;1.98;;;;;;;;;;5050295;28;20124;-66
2022/01/30 01:35:40;;;;;;;6.65;1.88;;;;;;;;;;5028853;28;20025;-67
2022/01/30 01:38:11;;;;;;;5.22;1.70;;;;;;;;;;5030555;28;20028;-66
2022/01/30 01:40:37;;;;;;;5.90;1.42;;;;;;;;;;5042662;28;20021;-66
2022/01/30 01:43:03;;;;;;;5.20;1.80;;;;;;;;;;5048983;28;20411;-65
2022/01/30 01:45:35;;;;;;;5.07;1.83;;;;;;;;;;5049304;28;20021;-66
2022/01/30 01:48:09;;;;;;;8.35;2.08;;;;;;;;;;5048948;28;20049;-66
2022/01/30 01:50:39;;;;;;;7.43;1.70;;;;;;;;;;5047362;28;20135;-67
2022/01/30 01:53:09;;;;;;;4.43;1.48;;;;;;;;;;5047673;28;20036;-67
2022/01/30 01:55:36;;;;;;;7.75;1.90;;;;;;;;;;5049647;28;20107;-66
2022/01/30 01:58:03;;;;;;;5.30;1.20;;;;;;;;;;5049984;28;20406;-66
2022/01/30 02:00:29;;;;;;;6.82;1.70;;;;;;;;;;5047982;28;20029;-66
2022/01/30 02:02:56;;;;;;;5.43;1.42;;;;;;;;;;5048162;28;20028;-66
2022/01/30 02:05:30;;;;;;;6.53;1.45;;;;;;;;;;5048068;28;20143;-65
2022/01/30 02:08:27;;;;;;;5.30;1.48;;;;;;;;;;5048911;28;20037;-66
2022/01/30 02:14:00;;;;;;;6.50;1.83;;;;;;;;;;5049414;28;20113;-67
2022/01/30 02:24:58;;;;;;;7.35;2.13;;;;;;;;;;5030324;28;20115;-66
2022/01/30 02:27:21;;;;;;;9.40;2.03;;;;;;;;;;5046893;28;20475;-66
2022/01/30 02:29:47;;;;;;;6.03;1.52;;;;;;;;;;5049208;28;20115;-67
2022/01/30 02:32:13;;;;;;;4.50;1.30;;;;;;;;;;5052693;28;20577;-66
2022/01/30 02:34:39;;;;;;;7.40;1.50;;;;;;;;;;5052975;28;20861;-67
2022/01/30 02:37:06;;;;;;;4.55;1.27;;;;;;;;;;5053341;28;20071;-67
2022/01/30 02:39:32;;;;;;;6.75;1.77;;;;;;;;;;5050349;28;20029;-67
2022/01/30 02:41:58;;;;;;;6.95;1.88;;;;;;;;;;5054556;28;20663;-67
2022/01/30 02:44:40;;;;;;;6.18;1.60;;;;;;;;;;5052660;28;20403;-67
2022/01/30 02:47:09;;;;;;;5.68;1.33;;;;;;;;;;5052639;28;20080;-67
2022/01/30 02:49:45;;;;;;;6.40;1.95;;;;;;;;;;5051553;28;20040;-66
2022/01/30 02:52:12;;;;;;;3.97;1.38;;;;;;;;;;5043733;28;20033;-65
2022/01/30 02:54:40;;;;;;;5.60;1.55;;;;;;;;;;5051774;28;20044;-66
2022/01/30 02:57:06;;;;;;;4.97;1.33;;;;;;;;;;5052611;28;20033;-66
2022/01/30 02:59:32;;;;;;;4.72;1.42;;;;;;;;;;5053066;28;20059;-66
2022/01/30 03:02:01;;;;;;;7.38;2.00;;;;;;;;;;5052836;28;20020;-66
2022/01/30 03:04:27;;;;;;;5.63;1.25;;;;;;;;;;5052329;28;20036;-67
2022/01/30 03:06:53;;;;;;;6.75;1.67;;;;;;;;;;5050935;28;20613;-68
2022/01/30 03:09:19;;;;;;;3.67;1.60;;;;;;;;;;5051018;28;20470;-67
2022/01/30 03:11:45;;;;;;;4.75;1.42;;;;;;;;;;5046500;28;20068;-66
2022/01/30 03:14:11;;;;;;;6.03;1.65;;;;;;;;;;5050597;28;20470;-66
2022/01/30 03:16:37;;;;;;;6.05;1.83;;;;;;;;;;5050997;28;20037;-66
2022/01/30 03:19:03;;;;;;;5.97;1.25;;;;;;;;;;5052709;28;20032;-67
2022/01/30 03:21:29;;;;;;;5.22;1.48;;;;;;;;;;5051692;28;20059;-67
2022/01/30 03:23:55;;;;;;;5.65;1.92;;;;;;;;;;5051278;28;20469;-67
2022/01/30 03:26:22;;;;;;;3.72;1.17;;;;;;;;;;5050219;28;20025;-67
2022/01/30 03:28:50;;;;;;;5.65;1.92;;;;;;;;;;5015878;28;20025;-67
2022/01/30 03:31:19;;;;;;;5.45;1.40;;;;;;;;;;5050646;28;20028;-67
2022/01/30 03:33:45;;;;;;;5.03;1.60;;;;;;;;;;5051579;28;20045;-68
2022/01/30 03:36:11;;;;;;;6.93;1.70;;;;;;;;;;5050882;28;20494;-67
2022/01/30 03:38:37;;;;;;;4.63;1.17;;;;;;;;;;5050279;28;20496;-67
2022/01/30 03:41:03;;;;;;;4.28;1.52;;;;;;;;;;5050143;28;20037;-67
2022/01/30 03:43:29;;;;;;;3.83;1.50;;;;;;;;;;5050497;28;20509;-67
2022/01/30 03:45:55;;;;;;;6.35;1.60;;;;;;;;;;5050492;28;20067;-67
2022/01/30 03:48:21;;;;;;;3.75;1.35;;;;;;;;;;5050456;28;20755;-67
2022/01/30 03:50:47;;;;;;;6.47;1.80;;;;;;;;;;5049635;28;20809;-67
2022/01/30 03:53:13;;;;;;;6.10;1.55;;;;;;;;;;5051099;28;20132;-68
2022/01/30 03:55:39;;;;;;;4.45;1.10;;;;;;;;;;5049339;28;20112;-67
2022/01/30 03:58:07;;;;;;;3.90;1.70;;;;;;;;;;5049960;28;20037;-67
2022/01/30 04:00:33;;;;;;;5.18;1.80;;;;;;;;;;5050299;28;20029;-68
2022/01/30 04:03:00;;;;;;;4.18;1.25;;;;;;;;;;5050110;28;20565;-67
2022/01/30 04:05:26;;;;;;;4.70;1.23;;;;;;;;;;5050007;28;20029;-68
2022/01/30 04:07:52;;;;;;;3.35;1.23;;;;;;;;;;5050280;28;20519;-67
2022/01/30 04:10:18;;;;;;;5.22;1.50;;;;;;;;;;5050060;28;20017;-67
2022/01/30 04:12:44;;;;;;;4.28;1.30;;;;;;;;;;5050152;28;20061;-68
2022/01/30 04:15:10;;;;;;;5.20;1.23;;;;;;;;;;5049870;28;20017;-68
2022/01/30 04:17:36;;;;;;;4.00;1.20;;;;;;;;;;5049682;28;20163;-67
2022/01/30 04:20:03;;;;;;;6.05;1.50;;;;;;;;;;5049784;28;20055;-67
2022/01/30 04:22:29;;;;;;;3.22;1.10;;;;;;;;;;5043104;28;20172;-66
2022/01/30 04:24:55;;;;;;;4.53;1.40;;;;;;;;;;5042449;28;20139;-67
2022/01/30 04:27:21;;;;;;;5.82;1.88;;;;;;;;;;5043069;28;20424;-67
2022/01/30 04:29:48;;;;;;;3.60;1.08;;;;;;;;;;5042199;28;20052;-67
2022/01/30 04:32:15;;;;;;;4.43;1.48;;;;;;;;;;5040125;28;20104;-67
2022/01/30 04:34:43;;;;;;;3.60;1.35;;;;;;;;;;5043699;28;20107;-68
2022/01/30 04:37:20;;;;;;;3.22;0.82;;;;;;;;;;5046998;28;20108;-68
2022/01/30 04:54:20;;;;;;;3.97;1.25;;;;;;;;;;5039856;28;20731;-66
2022/01/30 04:59:15;;;;;;;4.03;1.05;;;;;;;;;;5040646;28;20034;-68
2022/01/30 05:07:26;;;;;;;4.38;1.20;;;;;;;;;;5044215;28;20116;-67
2022/01/30 05:09:38;;;;;;;4.22;1.42;;;;;;;;;;5041542;28;20107;-67
2022/01/30 05:12:05;;;;;;;3.63;1.27;;;;;;;;;;5040751;28;20063;-67
2022/01/30 05:14:36;;;;;;;4.47;1.25;;;;;;;;;;5046489;28;20044;-67
2022/01/30 05:17:03;;;;;;;3.08;0.98;;;;;;;;;;5030243;28;20044;-67
2022/01/30 05:19:30;;;;;;;5.80;1.33;;;;;;;;;;5048674;28;20061;-66
2022/01/30 05:21:56;;;;;;;6.32;1.83;;;;;;;;;;5048420;28;20175;-67
2022/01/30 05:24:22;;;;;;;3.85;1.15;;;;;;;;;;5048033;28;20108;-67
2022/01/30 05:26:48;;;;;;;4.65;1.08;;;;;;;;;;5048516;28;20636;-67
2022/01/30 05:29:15;;;;;;;4.88;1.10;;;;;;;;;;5040991;28;20033;-68
2022/01/30 05:31:41;;;;;;;3.90;1.00;;;;;;;;;;5042458;28;20104;-68
2022/01/30 05:34:08;;;;;;;3.83;1.08;;;;;;;;;;5049045;28;20112;-66
2022/01/30 05:36:34;;;;;;;4.03;1.50;;;;;;;;;;5047088;28;20112;-67
2022/01/30 05:39:04;;;;;;;4.47;1.30;;;;;;;;;;5029449;28;20116;-67
2022/01/30 05:41:31;;;;;;;3.08;0.88;;;;;;;;;;5048549;28;20029;-67
2022/01/30 05:44:00;;;;;;;4.50;1.20;;;;;;;;;;5048346;28;20025;-67
2022/01/30 05:46:33;;;;;;;4.45;1.33;;;;;;;;;;5048227;28;20119;-67
2022/01/30 05:48:59;;;;;;;4.45;0.98;;;;;;;;;;5048196;28;20051;-66
2022/01/30 05:51:25;;;;;;;3.22;0.98;;;;;;;;;;5049314;28;20108;-68
2022/01/30 05:53:51;;;;;;;3.50;1.00;;;;;;;;;;5048409;28;20465;-66
2022/01/30 05:56:17;;;;;;;4.03;1.23;;;;;;;;;;5048208;28;20055;-66
2022/01/30 05:58:43;;;;;;;5.45;1.20;;;;;;;;;;5048258;28;20467;-66
2022/01/30 06:01:09;;;;;;;3.10;1.05;;;;;;;;;;5048027;28;20096;-65
2022/01/30 06:03:35;;;;;;;5.97;1.20;;;;;;;;;;5047694;28;20116;-66
2022/01/30 06:06:02;;;;;;;3.33;1.23;;;;;;;;;;5046640;28;20439;-68
2022/01/30 06:11:06;;;;;;;3.13;0.93;;;;;;;;;;5048892;28;20029;-68
2022/01/30 06:13:32;;;;;;;2.88;0.90;;;;;;;;;;5048395;28;20068;-67
2022/01/30 06:15:59;;;;;;;5.75;1.40;;;;;;;;;;5047002;28;20036;-66
2022/01/30 06:18:25;;;;;;;4.38;1.15;;;;;;;;;;5047624;28;20176;-67
2022/01/30 06:20:51;;;;;;;4.45;1.00;;;;;;;;;;5048708;28;20095;-68
2022/01/30 06:23:17;;;;;;;6.05;1.35;;;;;;;;;;5047328;28;20048;-67
2022/01/30 06:25:44;;;;;;;3.63;1.20;;;;;;;;;;5048507;28;20104;-66
2022/01/30 06:28:10;;;;;;;3.55;0.88;;;;;;;;;;5047229;28;20025;-66
2022/01/30 06:30:36;;;;;;;4.47;1.13;;;;;;;;;;5047232;28;20152;-67
2022/01/30 06:33:02;;;;;;;4.13;1.08;;;;;;;;;;5047917;28;20028;-67
2022/01/30 06:35:28;;;;;;;3.95;1.42;;;;;;;;;;5048085;28;20120;-67
2022/01/30 06:37:54;;;;;;;3.42;1.08;;;;;;;;;;5048163;28;20025;-68
2022/01/30 06:40:20;;;;;;;4.90;1.50;;;;;;;;;;5047174;28;20031;-66
2022/01/30 06:42:46;;;;;;;3.88;0.82;;;;;;;;;;5048209;28;20523;-66
2022/01/30 06:45:12;;;;;;;4.10;1.10;;;;;;;;;;5047988;28;20029;-66
2022/01/30 06:47:41;;;;;;;2.80;0.90;;;;;;;;;;5047674;28;20056;-66
2022/01/30 06:50:08;;;;;;;5.38;1.48;;;;;;;;;;5046754;28;20249;-66
2022/01/30 06:52:34;;;;;;;3.80;1.10;;;;;;;;;;5037258;28;20037;-66
2022/01/30 06:55:00;;;;;;;5.38;1.40;;;;;;;;;;5041828;28;20041;-66
2022/01/30 06:57:27;;;;;;;4.45;1.17;;;;;;;;;;5047572;28;20120;-67
2022/01/30 06:59:53;;;;;;;3.05;1.42;;;;;;;;;;5047366;28;20072;-66
2022/01/30 07:02:19;;;;;;;4.13;1.42;;;;;;;;;;5047223;28;20036;-66
2022/01/30 07:04:46;;;;;;;3.55;1.33;;;;;;;;;;5047932;28;20037;-67
2022/01/30 07:07:12;;;;;;;3.38;1.27;;;;;;;;;;5047359;28;20096;-67
2022/01/30 07:09:38;;;;;;;5.95;1.50;;;;;;;;;;5047942;28;20037;-66
2022/01/30 07:12:04;;;;;;;3.92;1.23;;;;;;;;;;5045118;28;20025;-66
2022/01/30 07:14:30;;;;;;;4.60;1.75;;;;;;;;;;5047970;28;20176;-66
2022/01/30 07:16:56;;;;;;;4.30;1.50;;;;;;;;;;5047300;28;20083;-67
2022/01/30 07:19:22;;;;;;;3.95;0.98;;;;;;;;;;5051561;28;20132;-66
2022/01/30 07:21:48;;;;;;;2.90;1.42;;;;;;;;;;5051289;28;20032;-66
2022/01/30 07:24:14;;;;;;;3.00;1.05;;;;;;;;;;5051450;28;20398;-66
2022/01/30 07:26:41;;;;;;;5.03;1.52;;;;;;;;;;5049226;28;20055;-65
2022/01/30 07:29:07;;;;;;;4.97;1.15;;;;;;;;;;5050126;28;20112;-65
2022/01/30 07:31:33;;;;;;;4.85;1.77;;;;;;;;;;5050167;28;20032;-66
2022/01/30 07:34:00;;;;;;;6.65;1.83;;;;;;;;;;5049857;28;20033;-66
2022/01/30 07:36:26;;;;;;;4.20;1.30;;;;;;;;;;5049730;28;20025;-66
2022/01/30 07:38:53;;;;;;;5.38;1.70;;;;;;;;;;5042887;28;20044;-66
2022/01/30 07:41:19;;;;;;;5.35;1.52;;;;;;;;;;5050666;28;20079;-67
2022/01/30 07:43:45;;;;;;;5.78;1.42;;;;;;;;;;5033633;28;20025;-66
2022/01/30 07:46:11;;;;;;;5.15;1.45;;;;;;;;;;5051379;28;20032;-66
2022/01/30 07:48:38;;;;;;;5.15;1.13;;;;;;;;;;5041851;28;20041;-67
2022/01/30 07:51:05;;;;;;;2.58;1.10;;;;;;;;;;5045241;28;20111;-67
2022/01/30 07:53:31;;;;;;;5.13;1.52;;;;;;;;;;5045412;28;20044;-67
2022/01/30 07:55:57;;;;;;;5.43;1.10;;;;;;;;;;5042045;28;20036;-67
2022/01/30 07:58:23;;;;;;;3.90;1.52;;;;;;;;;;5045617;28;20025;-65
2022/01/30 08:00:49;;;;;;;3.97;1.05;;;;;;;;;;5043424;28;20036;-66
2022/01/30 08:03:15;;;;;;;6.63;1.55;;;;;;;;;;5046189;28;20492;-65
2022/01/30 08:05:42;;;;;;;3.90;0.93;;;;;;;;;;5040800;28;20033;-64
2022/01/30 08:08:08;;;;;;;5.85;1.65;;;;;;;;;;5047876;28;20812;-66
2022/01/30 08:10:34;;;;;;;4.70;1.38;;;;;;;;;;5046092;28;20029;-65
2022/01/30 08:13:01;;;;;;;4.30;1.33;;;;;;;;;;5044229;28;20108;-65
2022/01/30 08:15:27;;;;;;;3.88;1.30;;;;;;;;;;5042240;28;20087;-67
2022/01/30 08:17:54;;;;;;;6.20;1.33;;;;;;;;;;5045132;28;20115;-67
2022/01/30 08:20:24;;;;;;;4.20;1.27;;;;;;;;;;5042148;28;20032;-66
2022/01/30 08:22:51;;;;;;;3.97;1.17;;;;;;;;;;5046531;28;20025;-65
2022/01/30 08:25:19;;;;;;;6.15;1.88;;;;;;;;;;5042257;28;20032;-65
2022/01/30 08:27:45;;;;;;;2.40;0.90;;;;;;;;;;5041786;28;20124;-68
2022/01/30 08:30:11;;;;;;;3.95;1.40;;;;;;;;;;5044381;28;20752;-65
2022/01/30 08:32:48;;;;;;;3.13;1.35;;;;;;;;;;5041656;28;20025;-67
2022/01/30 08:35:15;;;;;;;5.85;1.52;;;;;;;;;;5040708;28;20518;-66
2022/01/30 08:37:41;;;;;;;4.60;1.23;;;;;;;;;;5041554;28;20034;-67
2022/01/30 08:40:12;;;;;;;4.82;1.48;;;;;;;;;;5042175;28;20057;-65
2022/01/30 08:42:38;;;;;;;4.10;1.10;;;;;;;;;;5042457;28;20080;-64
2022/01/30 08:45:05;;;;;;;3.97;1.15;;;;;;;;;;5032421;28;20585;-66
2022/01/30 08:47:31;;;;;;;3.00;1.23;;;;;;;;;;5045700;28;20045;-66
2022/01/30 08:49:57;;;;;;;5.60;1.80;;;;;;;;;;5037606;28;20627;-66
2022/01/30 08:52:23;;;;;;;6.40;1.40;;;;;;;;;;5043623;28;20108;-66
2022/01/30 08:54:50;;;;;;;6.32;1.58;;;;;;;;;;5041978;28;20609;-66
2022/01/30 08:57:17;;;;;;;5.45;1.33;;;;;;;;;;5041259;28;20017;-66
2022/01/30 08:59:43;;;;;;;3.17;1.05;;;;;;;;;;5041143;28;20034;-66
2022/01/30 09:02:09;;;;;;;4.50;1.10;;;;;;;;;;5033085;28;20748;-66
2022/01/30 09:04:35;;;;;;;4.80;1.20;;;;;;;;;;5042917;28;20053;-67
2022/01/30 09:07:01;;;;;;;11.48;2.42;;;;;;;;;;5041112;28;20450;-66
2022/01/30 09:09:29;;;;;;;11.07;1.70;;;;;;;;;;5038303;28;20032;-66
2022/01/30 09:11:57;;;;;;;9.57;1.95;;;;;;;;;;5041409;28;20056;-66
2022/01/30 09:14:23;;;;;;;8.90;2.20;;;;;;;;;;5042035;28;20043;-66
2022/01/30 09:16:49;;;;;;;8.07;2.30;;;;;;;;;;5048116;28;20395;-66
2022/01/30 09:19:15;;;;;;;6.75;1.98;;;;;;;;;;5045220;28;20090;-66
2022/01/30 09:21:41;;;;;;;10.65;2.42;;;;;;;;;;5042063;28;20025;-66
2022/01/30 09:24:07;;;;;;;11.52;2.80;;;;;;;;;;5048407;28;20540;-68
2022/01/30 09:26:33;;;;;;;10.55;2.80;;;;;;;;;;5045022;28;20069;-67
2022/01/30 09:28:59;;;;;;;12.20;3.53;;;;;;;;;;5045235;28;20490;-67
2022/01/30 09:31:25;;;;;;;16.90;2.83;;;;;;;;;;5040438;28;20058;-68
2022/01/30 09:33:52;;;;;;;18.45;4.00;;;;;;;;;;5038144;28;20116;-67
2022/01/30 09:36:19;;;;;;;17.38;4.53;;;;;;;;;;5041579;28;20068;-67
2022/01/30 09:38:45;;;;;;;21.38;3.85;;;;;;;;;;5039273;28;20060;-68
2022/01/30 09:41:11;;;;;;;17.25;4.55;;;;;;;;;;5039363;28;20028;-68
2022/01/30 09:43:37;;;;;;;25.40;4.57;;;;;;;;;;5037336;28;20374;-67
2022/01/30 09:46:04;;;;;;;25.08;5.40;;;;;;;;;;5043199;28;20017;-68
2022/01/30 09:48:35;;;;;;;25.17;4.85;;;;;;;;;;5039460;28;20045;-66
2022/01/30 09:51:02;;;;;;;22.00;5.18;;;;;;;;;;5043721;28;20530;-67
2022/01/30 09:53:28;;;;;;;21.08;4.35;;;;;;;;;;5037529;28;20164;-66
2022/01/30 09:55:54;;;;;;;19.40;4.32;;;;;;;;;;5023430;28;20467;-65
2022/01/30 09:58:20;;;;;;;14.43;4.25;;;;;;;;;;5045650;28;20491;-66
2022/01/30 10:00:46;;;;;;;22.42;5.25;;;;;;;;;;5048720;28;20017;-66
2022/01/30 10:03:12;;;;;;;25.85;4.45;;;;;;;;;;5049072;28;20025;-67
2022/01/30 10:05:58;;;;;;;20.80;4.95;;;;;;;;;;5046613;28;20521;-67
2022/01/30 10:08:31;;;;;;;26.42;6.68;;;;;;;;;;5046924;28;20090;-67
2022/01/30 10:11:00;;;;;;;19.60;5.43;;;;;;;;;;5046921;28;20531;-66
2022/01/30 10:13:31;;;;;;;20.45;4.50;;;;;;;;;;5046568;28;20064;-67
2022/01/30 10:16:03;;;;;;;20.33;4.75;;;;;;;;;;5047009;28;20044;-67
2022/01/30 10:18:33;;;;;;;20.75;4.60;;;;;;;;;;5046960;28;20033;-67
2022/01/30 10:21:00;;;;;;;18.80;4.97;;;;;;;;;;5047213;28;20033;-67
2022/01/30 10:23:33;;;;;;;26.60;5.60;;;;;;;;;;5046205;28;20021;-68
2022/01/30 10:26:01;;;;;;;22.00;5.25;;;;;;;;;;5047035;28;20075;-67
2022/01/30 10:28:32;;;;;;;18.83;4.55;;;;;;;;;;5046363;28;20122;-67
2022/01/30 10:31:02;;;;;;;20.15;4.63;;;;;;;;;;5047010;28;20616;-67
2022/01/30 10:33:48;;;;;;;22.23;4.60;;;;;;;;;;5046725;28;20088;-67
2022/01/30 10:36:25;;;;;;;16.38;5.03;;;;;;;;;;5028192;28;20057;-67
2022/01/30 10:39:02;;;;;;;19.70;5.53;;;;;;;;;;5048070;28;20112;-67
2022/01/30 10:41:35;;;;;;;28.50;5.60;;;;;;;;;;5048812;28;20097;-66
2022/01/30 10:44:05;;;;;;;22.30;4.68;;;;;;;;;;5047712;28;20031;-65
2022/01/30 10:46:31;;;;;;;;;;;;;;;;;;5048339;28;20036;-67
2022/01/30 10:49:03;;;;;;;21.80;4.65;;;;;;;;;;5047036;28;19909;-67
2022/01/30 10:51:31;;;;;;;23.67;5.35;;;;;;;;;;5049165;28;20051;-65
2022/01/30 10:54:06;;;;;;;31.10;6.55;;;;;;;;;;5051550;28;20556;-66
2022/01/30 10:56:32;;;;;;;19.70;5.38;;;;;;;;;;5032321;28;20022;-66
2022/01/30 10:59:04;;;;;;;23.63;5.05;;;;;;;;;;5047278;28;20060;-67
2022/01/30 11:01:30;;;;;;;23.60;5.35;;;;;;;;;;5052296;28;20025;-66
2022/01/30 11:04:00;;;;;;;22.27;5.22;;;;;;;;;;5050319;28;20107;-68
2022/01/30 11:06:27;;;;;;;26.73;5.28;;;;;;;;;;5049418;28;20052;-65
2022/01/30 11:08:54;;;;;;;22.23;4.93;;;;;;;;;;5042763;28;20494;-65
2022/01/30 11:11:30;;;;;;;18.92;4.93;;;;;;;;;;5050458;28;20463;-69
2022/01/30 11:14:16;;;;;;;17.42;4.50;;;;;;;;;;5050729;28;20033;-68
2022/01/30 11:16:56;;;;;;;15.68;3.92;;;;;;;;;;5050053;28;20033;-67
2022/01/30 11:19:23;;;;;;;19.95;4.72;;;;;;;;;;5050081;28;20039;-66
2022/01/30 11:21:50;;;;;;;24.52;5.15;;;;;;;;;;5043017;28;20021;-70
2022/01/30 11:24:16;;;;;;;21.90;4.47;;;;;;;;;;5049511;28;20032;-66
2022/01/30 11:26:43;;;;;;;19.23;4.18;;;;;;;;;;5048966;28;20025;-68
2022/01/30 11:29:14;;;;;;;22.33;4.88;;;;;;;;;;5051048;28;20029;-68
2022/01/30 11:31:40;;;;;;;23.65;4.82;;;;;;;;;;5050281;28;20103;-68
2022/01/30 11:34:06;;;;;;;19.98;5.35;;;;;;;;;;5049979;28;20589;-68
2022/01/30 11:36:38;;;;;;;18.95;5.78;;;;;;;;;;5050529;28;20029;-69
2022/01/30 11:39:05;;;;;;;18.25;4.72;;;;;;;;;;5050487;28;20020;-68
2022/01/30 11:41:34;;;;;;;20.02;4.88;;;;;;;;;;5050345;28;20432;-68
2022/01/30 11:44:18;;;;;;;20.42;4.90;;;;;;;;;;5049863;28;20021;-69
2022/01/30 11:46:57;;;;;;;21.17;5.13;;;;;;;;;;5046017;28;20765;-69
2022/01/30 11:49:24;;;;;;;20.33;5.03;;;;;;;;;;5039784;28;20013;-69
2022/01/30 11:51:51;;;;;;;18.75;5.28;;;;;;;;;;5043208;28;20025;-69
2022/01/30 11:54:36;;;;;;;17.65;4.50;;;;;;;;;;5042413;28;20548;-69
2022/01/30 11:57:03;;;;;;;21.58;4.63;;;;;;;;;;5039163;28;20019;-69
2022/01/30 11:59:39;;;;;;;26.58;4.68;;;;;;;;;;5039555;28;20021;-69
2022/01/30 12:02:24;;;;;;;17.73;4.45;;;;;;;;;;5041870;28;20436;-69
2022/01/30 12:04:59;;;;;;;18.52;3.58;;;;;;;;;;5039709;28;20021;-68
2022/01/30 12:07:35;;;;;;;23.35;4.90;;;;;;;;;;5040450;28;20160;-68
2022/01/30 12:10:16;;;;;;;19.60;4.50;;;;;;;;;;5040667;28;20710;-68
2022/01/30 12:12:48;;;;;;;22.17;5.45;;;;;;;;;;5042746;28;20871;-68
2022/01/30 12:15:33;;;;;;;18.63;4.57;;;;;;;;;;5040981;28;20041;-68
2022/01/30 12:17:59;;;;;;;18.20;4.57;;;;;;;;;;5042210;28;20035;-69
2022/01/30 12:20:26;;;;;;;19.90;4.70;;;;;;;;;;5038434;28;20403;-69
2022/01/30 12:22:53;;;;;;;17.85;4.40;;;;;;;;;;5047313;28;20029;-68
2022/01/30 12:25:24;;;;;;;18.77;4.53;;;;;;;;;;5048677;28;20475;-69
2022/01/30 12:27:54;;;;;;;16.85;4.25;;;;;;;;;;5049196;28;20762;-68
2022/01/30 12:30:44;;;;;;;15.57;4.50;;;;;;;;;;5049009;28;20025;-68
2022/01/30 12:33:29;;;;;;;20.95;5.72;;;;;;;;;;5047407;28;20029;-68
2022/01/30 12:35:55;;;;;;;20.55;5.25;;;;;;;;;;5048776;28;20032;-68
2022/01/30 12:38:29;;;;;;;18.42;4.63;;;;;;;;;;5048478;28;20021;-68
2022/01/30 12:40:55;;;;;;;25.08;5.45;;;;;;;;;;5048544;28;20048;-68
2022/01/30 12:43:31;;;;;;;22.02;5.43;;;;;;;;;;5048673;28;20052;-68
2022/01/30 12:46:10;;;;;;;18.15;4.50;;;;;;;;;;5049350;28;20044;-68
2022/01/30 12:48:36;;;;;;;23.23;5.82;;;;;;;;;;5048498;28;20048;-67
2022/01/30 12:51:06;;;;;;;17.48;5.43;;;;;;;;;;5048262;28;20025;-67
2022/01/30 12:53:35;;;;;;;22.58;7.00;;;;;;;;;;5048218;28;20045;-66
2022/01/30 12:56:01;;;;;;;19.67;5.50;;;;;;;;;;5048661;28;20039;-67
2022/01/30 12:58:32;;;;;;;23.40;5.75;;;;;;;;;;5048030;28;20047;-67
2022/01/30 13:01:14;;;;;;;17.10;5.53;;;;;;;;;;5048388;28;20040;-69
2022/01/30 13:03:40;;;;;;;16.83;5.70;;;;;;;;;;5044939;28;20052;-68
2022/01/30 13:06:07;;;;;;;18.30;5.05;;;;;;;;;;5028491;28;20029;-68
2022/01/30 13:08:47;;;;;;;21.75;5.75;;;;;;;;;;5045264;28;20031;-67
2022/01/30 13:11:21;;;;;;;18.33;5.90;;;;;;;;;;5031080;28;20398;-68
2022/01/30 13:13:55;;;;;;;21.67;5.22;;;;;;;;;;5044407;28;20052;-69
2022/01/30 13:16:21;;;;;;;19.25;5.30;;;;;;;;;;5047349;28;20033;-69
2022/01/30 13:18:47;;;;;;;20.95;5.28;;;;;;;;;;5044117;28;20029;-69
2022/01/30 13:21:13;;;;;;;21.60;5.60;;;;;;;;;;5036978;28;20033;-68
2022/01/30 13:23:45;;;;;;;23.65;5.55;;;;;;;;;;5041685;28;20028;-69
2022/01/30 13:26:11;;;;;;;24.35;5.53;;;;;;;;;;5048106;28;20075;-69
2022/01/30 13:28:39;;;;;;;23.65;5.00;;;;;;;;;;5047787;28;20041;-69
2022/01/30 13:31:12;;;;;;;26.27;5.72;;;;;;;;;;5048018;28;20647;-68
2022/01/30 13:33:38;;;;;;;20.30;5.50;;;;;;;;;;5047339;28;20184;-68
2022/01/30 13:36:04;;;;;;;18.85;4.80;;;;;;;;;;5044420;28;20025;-68
2022/01/30 13:38:33;;;;;;;28.85;6.35;;;;;;;;;;5042961;28;20110;-69
2022/01/30 13:41:03;;;;;;;21.80;5.25;;;;;;;;;;5048205;28;20060;-68
2022/01/30 13:43:35;;;;;;;27.10;5.22;;;;;;;;;;5047716;28;20029;-69
2022/01/30 13:48:46;;;;;;;19.52;6.18;;;;;;;;;;5047178;28;20102;-66
2022/01/30 13:51:20;;;;;;;22.15;5.43;;;;;;;;;;5047852;28;20119;-67
2022/01/30 13:53:46;;;;;;;26.52;5.35;;;;;;;;;;5046929;28;20032;-67
2022/01/30 13:56:15;;;;;;;24.40;5.68;;;;;;;;;;5047818;28;20108;-67
2022/01/30 13:58:41;;;;;;;26.75;5.75;;;;;;;;;;5047559;28;20056;-66
2022/01/30 14:01:11;;;;;;;25.30;6.07;;;;;;;;;;5035484;28;20108;-68
2022/01/30 14:03:37;;;;;;;;;;;;;;;;;;5044726;28;20036;-67
2022/01/30 14:06:04;;;;;;;22.88;5.63;;;;;;;;;;5046422;28;19936;-67
2022/01/30 14:08:30;;;;;;;26.05;5.72;;;;;;;;;;5047170;28;20026;-67
2022/01/30 14:11:04;;;;;;;17.50;4.13;;;;;;;;;;5047612;28;20021;-66
2022/01/30 14:13:37;;;;;;;22.80;4.90;;;;;;;;;;5046940;28;20399;-66
2022/01/30 14:16:05;;;;;;;21.95;5.13;;;;;;;;;;5045399;28;20056;-66
2022/01/30 14:18:35;;;;;;;23.25;5.30;;;;;;;;;;5033019;28;20022;-66
2022/01/30 14:21:03;;;;;;;26.00;5.53;;;;;;;;;;5043715;28;20064;-65
2022/01/30 14:23:35;;;;;;;20.05;5.00;;;;;;;;;;5044943;28;20033;-67
2022/01/30 14:26:01;;;;;;;17.25;5.07;;;;;;;;;;5045977;28;20025;-66
2022/01/30 14:28:31;;;;;;;18.60;5.10;;;;;;;;;;5048394;28;20029;-66
2022/01/30 14:30:57;;;;;;;;;;;;;;;;;;5056950;28;20479;-67
2022/01/30 14:33:27;;;;;;;17.15;4.65;;;;;;;;;;5049251;28;19994;-65
2022/01/30 14:35:53;;;;;;;18.27;4.10;;;;;;;;;;5046162;28;20129;-66
2022/01/30 14:38:19;;;;;;;25.23;5.82;;;;;;;;;;5040953;28;20306;-65
2022/01/30 14:40:45;;;;;;;21.40;4.68;;;;;;;;;;5043266;28;20557;-67
2022/01/30 14:43:12;;;;;;;21.00;5.10;;;;;;;;;;5044122;28;20019;-67
2022/01/30 14:45:38;;;;;;;17.85;4.78;;;;;;;;;;5044139;28;20079;-66
2022/01/30 14:48:05;;;;;;;21.88;5.32;;;;;;;;;;5046058;28;20048;-67
2022/01/30 14:50:31;;;;;;;19.13;4.15;;;;;;;;;;5040970;28;20392;-67
2022/01/30 14:52:58;;;;;;;21.27;5.60;;;;;;;;;;5039409;28;20037;-68
2022/01/30 14:55:26;;;;;;;20.85;4.22;;;;;;;;;;5041771;28;20103;-66
2022/01/30 14:57:54;;;;;;;27.10;5.13;;;;;;;;;;5042642;28;20104;-66
2022/01/30 15:00:22;;;;;;;14.55;4.00;;;;;;;;;;5039632;28;20032;-67
2022/01/30 15:02:50;;;;;;;16.48;4.60;;;;;;;;;;5042111;28;20462;-65
2022/01/30 15:05:16;;;;;;;20.55;5.53;;;;;;;;;;5039802;28;20108;-65
2022/01/30 15:07:43;;;;;;;27.73;5.03;;;;;;;;;;5041415;28;20788;-65
2022/01/30 15:10:09;;;;;;;18.40;4.90;;;;;;;;;;5041668;28;20032;-65
2022/01/30 15:12:36;;;;;;;21.63;5.07;;;;;;;;;;5041470;28;20053;-66
2022/01/30 15:15:05;;;;;;;18.88;4.95;;;;;;;;;;5040704;28;20037;-66
2022/01/30 15:17:34;;;;;;;16.58;5.22;;;;;;;;;;5044135;28;20506;-66
2022/01/30 15:20:00;;;;;;;20.13;5.53;;;;;;;;;;5038732;28;20071;-67
2022/01/30 15:22:26;;;;;;;17.85;5.70;;;;;;;;;;5040489;28;20090;-67
2022/01/30 15:24:53;;;;;;;18.88;5.25;;;;;;;;;;5040213;28;20029;-67
2022/01/30 15:27:23;;;;;;;17.77;5.07;;;;;;;;;;5041471;28;20076;-66
2022/01/30 15:29:49;;;;;;;13.10;4.97;;;;;;;;;;5041254;28;20104;-65
2022/01/30 15:32:16;;;;;;;14.20;4.65;;;;;;;;;;5040511;28;20100;-66
2022/01/30 15:34:42;;;;;;;18.48;5.70;;;;;;;;;;5040648;28;20033;-66
2022/01/30 15:37:08;;;;;;;19.73;5.20;;;;;;;;;;5042389;28;20024;-66
2022/01/30 15:39:34;;;;;;;16.63;4.45;;;;;;;;;;5039226;28;20476;-66